createdAt,value
2018-09-29T00:01:42.435Z,99686.61
2018-09-29T00:04:10.118Z,99690.51
2018-09-29T00:06:37.927Z,99692.84
2018-09-29T00:09:08.502Z,99685.15
2018-09-29T00:11:36.247Z,99683.74
2018-09-29T00:14:03.965Z,99683.72
2018-09-29T00:16:31.751Z,99683.00
2018-09-29T00:18:59.429Z,99674.02
2018-09-29T00:21:27.154Z,99681.09
2018-09-29T00:23:54.900Z,99680.70
2018-09-29T00:26:22.612Z,99679.58
2018-09-29T00:28:50.514Z,99683.11
2018-09-29T00:31:18.270Z,99676.07
2018-09-29T00:33:46.619Z,99669.17
2018-09-29T00:36:14.335Z,99665.16
2018-09-29T00:38:42.067Z,99667.69
2018-09-29T00:41:09.894Z,99665.59
2018-09-29T00:43:37.642Z,99656.26
2018-09-29T00:46:05.376Z,99659.65
2018-09-29T00:48:33.238Z,99658.48
2018-09-29T00:51:01.006Z,99668.32
2018-09-29T00:53:28.717Z,99661.56
2018-09-29T00:55:56.461Z,99658.16
2018-09-29T00:58:24.190Z,99652.11
2018-09-29T01:00:51.933Z,99641.95
2018-09-29T01:03:19.698Z,99638.38
2018-09-29T01:05:47.415Z,99631.09
2018-09-29T01:08:15.138Z,99630.34
2018-09-29T01:10:42.875Z,99623.05
2018-09-29T01:13:10.621Z,99632.80
2018-09-29T01:15:38.521Z,99628.34
2018-09-29T01:18:06.710Z,99637.31
2018-09-29T01:20:34.443Z,99638.45
2018-09-29T01:23:02.190Z,99640.91
2018-09-29T01:25:29.906Z,99642.22
2018-09-29T01:27:57.629Z,99639.40
2018-09-29T01:30:25.705Z,99641.39
2018-09-29T01:32:53.439Z,99646.37
2018-09-29T01:35:21.166Z,99650.47
2018-09-29T01:37:48.880Z,99646.59
2018-09-29T01:40:16.610Z,99644.80
2018-09-29T01:42:44.321Z,99646.98
2018-09-29T01:45:12.079Z,99645.94
2018-09-29T01:47:39.798Z,99643.95
2018-09-29T01:50:07.554Z,99650.36
2018-09-29T01:52:35.283Z,99654.80
2018-09-29T01:55:02.987Z,99662.05
2018-09-29T01:57:30.754Z,99662.44
2018-09-29T01:59:58.466Z,99668.19
2018-09-29T02:02:26.187Z,99666.80
2018-09-29T02:04:54.308Z,99659.03
2018-09-29T02:07:22.361Z,99651.28
2018-09-29T02:09:50.542Z,99644.80
2018-09-29T02:12:18.502Z,99639.70
2018-09-29T02:14:46.250Z,99640.63
2018-09-29T02:17:13.970Z,99636.02
2018-09-29T02:19:41.675Z,99641.94
2018-09-29T02:22:09.366Z,99631.01
2018-09-29T02:24:37.081Z,99623.69
2018-09-29T02:27:04.913Z,99618.76
2018-09-29T02:29:32.725Z,99624.81
2018-09-29T02:32:00.438Z,99625.11
2018-09-29T02:34:28.145Z,99624.41
2018-09-29T02:36:55.854Z,99619.63
2018-09-29T02:39:23.569Z,99617.83
2018-09-29T02:41:51.287Z,99619.61
2018-09-29T02:44:19.008Z,99618.34
2018-09-29T02:46:46.738Z,99612.90
2018-09-29T02:49:14.438Z,99610.05
2018-09-29T02:51:42.160Z,99616.86
2018-09-29T02:54:09.870Z,99619.77
2018-09-29T02:56:37.590Z,99621.72
2018-09-29T02:59:05.343Z,99630.44
2018-09-29T03:01:33.086Z,99626.40
2018-09-29T03:04:00.831Z,99635.22
2018-09-29T03:06:28.544Z,99636.55
2018-09-29T03:08:56.270Z,99636.81
2018-09-29T03:11:23.958Z,99638.58
2018-09-29T03:13:51.669Z,99631.66
2018-09-29T03:16:19.374Z,99624.50
2018-09-29T03:18:47.077Z,99630.22
2018-09-29T03:21:14.900Z,99631.03
2018-09-29T03:23:42.635Z,99632.44
2018-09-29T03:26:10.345Z,99632.03
2018-09-29T03:28:38.095Z,99627.90
2018-09-29T03:31:06.086Z,99626.84
2018-09-29T03:33:33.799Z,99621.70
2018-09-29T03:36:01.531Z,99620.63
2018-09-29T03:38:29.254Z,99621.97
2018-09-29T03:40:56.974Z,99624.98
2018-09-29T03:43:24.691Z,99632.77
2018-09-29T03:45:52.410Z,99639.41
2018-09-29T03:48:20.129Z,99639.97
2018-09-29T03:50:47.946Z,99634.21
2018-09-29T03:53:15.661Z,99638.00
2018-09-29T03:55:43.394Z,99635.69
2018-09-29T03:58:11.112Z,99632.77
2018-09-29T04:00:38.826Z,99620.86
2018-09-29T04:03:06.589Z,99630.18
2018-09-29T04:05:34.363Z,99633.05
2018-09-29T04:08:02.075Z,99627.20
2018-09-29T04:10:29.775Z,99629.44
2018-09-29T04:12:57.505Z,99628.44
2018-09-29T04:15:25.274Z,99628.14
2018-09-29T04:17:53.026Z,99624.69
2018-09-29T04:20:20.730Z,99617.64
2018-09-29T04:22:48.475Z,99608.98
2018-09-29T04:25:16.184Z,99610.20
2018-09-29T04:27:43.906Z,99604.30
2018-09-29T04:30:11.634Z,99595.56
2018-09-29T04:32:39.348Z,99589.93
2018-09-29T04:35:07.070Z,99598.53
2018-09-29T04:37:34.785Z,99598.14
2018-09-29T04:40:02.621Z,99597.83
2018-09-29T04:42:30.322Z,99606.06
2018-09-29T04:44:58.035Z,99599.76
2018-09-29T04:47:25.752Z,99606.44
2018-09-29T04:49:53.474Z,99607.22
2018-09-29T04:52:21.171Z,99611.77
2018-09-29T04:54:48.902Z,99608.68
2018-09-29T04:57:16.606Z,99610.45
2018-09-29T04:59:44.314Z,99613.84
2018-09-29T05:02:12.032Z,99606.04
2018-09-29T05:04:39.747Z,99604.42
2018-09-29T05:07:07.539Z,99609.09
2018-09-29T05:09:35.227Z,99597.58
2018-09-29T05:12:02.941Z,99602.64
2018-09-29T05:14:30.659Z,99605.27
2018-09-29T05:16:58.414Z,99608.97
2018-09-29T05:19:26.142Z,99611.50
2018-09-29T05:21:53.851Z,99609.75
2018-09-29T05:24:21.549Z,99614.83
2018-09-29T05:26:49.254Z,99620.39
2018-09-29T05:29:16.970Z,99620.51
2018-09-29T05:31:44.681Z,99621.94
2018-09-29T05:34:12.381Z,99631.50
2018-09-29T05:36:40.090Z,99623.44
2018-09-29T05:39:08.700Z,99627.40
2018-09-29T05:41:36.426Z,99628.20
2018-09-29T05:44:04.185Z,99630.84
2018-09-29T05:46:31.922Z,99625.91
2018-09-29T05:49:00.063Z,99621.31
2018-09-29T05:51:27.778Z,99622.88
2018-09-29T05:53:55.519Z,99616.78
2018-09-29T05:56:23.599Z,99617.08
2018-09-29T05:58:51.402Z,99617.14
2018-09-29T06:01:19.158Z,99610.53
2018-09-29T06:03:46.878Z,99614.03
2018-09-29T06:06:14.951Z,99613.69
2018-09-29T06:08:43.317Z,99612.08
2018-09-29T06:11:11.057Z,99607.25
2018-09-29T06:13:38.782Z,99606.41
2018-09-29T06:16:06.698Z,99604.63
2018-09-29T06:18:34.393Z,99599.73
2018-09-29T06:21:02.224Z,99597.44
2018-09-29T06:23:30.310Z,99602.99
2018-09-29T06:25:58.385Z,99607.31
2018-09-29T06:28:26.555Z,99606.81
2018-09-29T06:30:55.702Z,99611.50
2018-09-29T06:33:24.754Z,99608.83
2018-09-29T06:35:53.442Z,99612.88
2018-09-29T06:38:21.518Z,99619.06
2018-09-29T06:40:49.272Z,99614.23
2018-09-29T06:43:16.980Z,99616.38
2018-09-29T06:45:44.782Z,99623.77
2018-09-29T06:48:12.502Z,99626.55
2018-09-29T06:50:40.344Z,99623.86
2018-09-29T06:53:08.077Z,99622.92
2018-09-29T06:55:35.810Z,99625.80
2018-09-29T06:58:03.542Z,99634.53
2018-09-29T07:00:32.874Z,99633.47
2018-09-29T07:03:00.656Z,99639.78
2018-09-29T07:05:29.595Z,99652.51
2018-09-29T07:08:02.388Z,99652.78
2018-09-29T07:10:30.127Z,99657.18
2018-09-29T07:12:57.924Z,99651.53
2018-09-29T07:15:25.625Z,99656.50
2018-09-29T07:17:53.526Z,99655.93
2018-09-29T07:20:21.303Z,99658.53
2018-09-29T07:22:49.191Z,99660.86
2018-09-29T07:25:17.076Z,99656.31
2018-09-29T07:27:44.814Z,99660.55
2018-09-29T07:30:12.538Z,99654.94
2018-09-29T07:32:40.267Z,99656.96
2018-09-29T07:35:07.994Z,99659.56
2018-09-29T07:37:35.814Z,99658.75
2018-09-29T07:40:03.654Z,99650.80
2018-09-29T07:42:31.386Z,99653.75
2018-09-29T07:44:59.110Z,99650.89
2018-09-29T07:47:26.866Z,99650.78
2018-09-29T07:49:54.587Z,99651.05
2018-09-29T07:52:22.342Z,99648.45
2018-09-29T07:54:50.093Z,99646.53
2018-09-29T07:57:17.822Z,99648.86
2018-09-29T07:59:45.550Z,99653.57
2018-09-29T08:02:13.298Z,99650.03
2018-09-29T08:04:41.015Z,99636.80
2018-09-29T08:07:08.762Z,99633.47
2018-09-29T08:09:36.635Z,99623.40
2018-09-29T08:12:04.465Z,99629.48
2018-09-29T08:14:32.174Z,99631.07
2018-09-29T08:16:59.934Z,99629.15
2018-09-29T08:19:27.654Z,99624.11
2018-09-29T08:21:55.367Z,99629.07
2018-09-29T08:24:23.132Z,99627.87
2018-09-29T08:26:51.137Z,99617.26
2018-09-29T08:29:18.850Z,99621.97
2018-09-29T08:31:46.562Z,99622.23
2018-09-29T08:34:14.289Z,99614.48
2018-09-29T08:36:42.009Z,99609.00
2018-09-29T08:39:10.241Z,99612.38
2018-09-29T08:41:38.082Z,99610.37
2018-09-29T08:44:05.922Z,99613.50
2018-09-29T08:46:34.093Z,99610.84
2018-09-29T08:49:01.789Z,99607.00
2018-09-29T08:51:29.586Z,99604.22
2018-09-29T08:53:57.443Z,99609.52
2018-09-29T08:56:25.198Z,99607.63
2018-09-29T08:58:54.054Z,99612.94
2018-09-29T09:01:21.971Z,99605.96
2018-09-29T09:03:49.748Z,99597.81
2018-09-29T09:06:17.469Z,99602.91
2018-09-29T09:08:45.261Z,99593.27
2018-09-29T09:11:13.035Z,99596.43
2018-09-29T09:13:40.785Z,99588.34
2018-09-29T09:16:08.602Z,99586.44
2018-09-29T09:18:37.779Z,99590.33
2018-09-29T09:21:05.683Z,99591.66
2018-09-29T09:23:34.185Z,99591.15
2018-09-29T09:26:01.971Z,99596.95
2018-09-29T09:28:29.719Z,99602.31
2018-09-29T09:30:57.494Z,99601.26
2018-09-29T09:33:25.229Z,99601.26
2018-09-29T09:35:53.034Z,99600.91
2018-09-29T09:38:20.783Z,99601.88
2018-09-29T09:40:48.550Z,99596.47
2018-09-29T09:43:16.323Z,99610.81
2018-09-29T09:45:44.149Z,99609.12
2018-09-29T09:48:11.913Z,99609.95
2018-09-29T09:50:39.666Z,99615.29
2018-09-29T09:53:07.450Z,99607.52
2018-09-29T09:55:35.188Z,99604.52
2018-09-29T09:58:02.966Z,99616.96
2018-09-29T10:00:36.147Z,99618.04
2018-09-29T10:03:09.446Z,99616.71
2018-09-29T10:05:37.210Z,99615.89
2018-09-29T10:08:05.000Z,99616.48
2018-09-29T10:10:32.758Z,99622.16
2018-09-29T10:13:00.506Z,99615.64
2018-09-29T10:15:28.279Z,99609.09
2018-09-29T10:17:55.995Z,99608.17
2018-09-29T10:20:23.726Z,99609.73
2018-09-29T10:22:51.482Z,99610.34
2018-09-29T10:25:19.254Z,99598.86
2018-09-29T10:27:47.048Z,99597.06
2018-09-29T10:30:14.762Z,99594.31
2018-09-29T10:32:42.538Z,99589.58
2018-09-29T10:35:10.247Z,99587.53
2018-09-29T10:37:37.966Z,99591.89
2018-09-29T10:40:05.922Z,99590.56
2018-09-29T10:42:33.686Z,99588.73
2018-09-29T10:45:01.459Z,99591.28
2018-09-29T10:47:29.289Z,99596.23
2018-09-29T10:49:57.262Z,99592.62
2018-09-29T10:52:24.989Z,99588.13
2018-09-29T10:54:52.742Z,99585.72
2018-09-29T10:57:20.482Z,99593.12
2018-09-29T10:59:48.226Z,99584.81
2018-09-29T11:02:16.036Z,99586.62
2018-09-29T11:04:43.754Z,99577.88
2018-09-29T11:07:11.465Z,99582.23
2018-09-29T11:09:39.286Z,99570.39
2018-09-29T11:12:07.130Z,99570.02
2018-09-29T11:14:34.851Z,99573.66
2018-09-29T11:17:02.614Z,99567.95
2018-09-29T11:19:30.397Z,99559.64
2018-09-29T11:21:58.134Z,99565.42
2018-09-29T11:24:25.857Z,99563.49
2018-09-29T11:26:53.630Z,99564.10
2018-09-29T11:29:21.355Z,99566.41
2018-09-29T11:31:49.098Z,99569.41
2018-09-29T11:34:16.846Z,99558.44
2018-09-29T11:36:44.567Z,99561.09
2018-09-29T11:39:12.851Z,99559.77
2018-09-29T11:41:40.910Z,99553.22
2018-09-29T11:44:09.202Z,99554.21
2018-09-29T11:46:36.962Z,99551.66
2018-09-29T11:49:04.926Z,99546.10
2018-09-29T11:51:32.651Z,99551.89
2018-09-29T11:54:00.393Z,99555.78
2018-09-29T11:56:28.143Z,99550.95
2018-09-29T11:58:55.886Z,99559.50
2018-09-29T12:01:23.703Z,99562.54
2018-09-29T12:03:51.423Z,99570.52
2018-09-29T12:06:19.186Z,99565.69
2018-09-29T12:08:47.814Z,99559.18
2018-09-29T12:11:15.665Z,99557.24
2018-09-29T12:13:43.532Z,99561.84
2018-09-29T12:16:11.246Z,99559.76
2018-09-29T12:18:38.973Z,99562.55
2018-09-29T12:21:06.809Z,99558.91
2018-09-29T12:23:34.742Z,99559.66
2018-09-29T12:26:02.541Z,99553.88
2018-09-29T12:28:30.258Z,99552.41
2018-09-29T12:30:57.982Z,99550.36
2018-09-29T12:33:25.727Z,99550.49
2018-09-29T12:35:53.458Z,99557.48
2018-09-29T12:38:21.177Z,99558.05
2018-09-29T12:40:48.894Z,99557.56
2018-09-29T12:43:16.656Z,99549.97
2018-09-29T12:45:44.441Z,99548.17
2018-09-29T12:48:12.157Z,99550.08
2018-09-29T12:50:39.930Z,99554.33
2018-09-29T12:53:07.678Z,99548.03
2018-09-29T12:55:35.410Z,99551.58
2018-09-29T12:58:03.142Z,99544.94
2018-09-29T13:00:30.866Z,99542.48
2018-09-29T13:02:58.621Z,99542.48
2018-09-29T13:05:26.358Z,99544.77
2018-09-29T13:07:54.087Z,99533.78
2018-09-29T13:10:21.819Z,99531.13
2018-09-29T13:12:49.550Z,99537.16
2018-09-29T13:15:17.302Z,99532.08
2018-09-29T13:17:45.024Z,99529.09
2018-09-29T13:20:12.970Z,99525.00
2018-09-29T13:22:40.731Z,99521.59
2018-09-29T13:25:08.454Z,99519.55
2018-09-29T13:27:36.213Z,99512.19
2018-09-29T13:30:04.325Z,99512.42
2018-09-29T13:32:32.105Z,99511.70
2018-09-29T13:34:59.825Z,99521.36
2018-09-29T13:37:27.926Z,99518.83
2018-09-29T13:39:55.658Z,99528.48
2018-09-29T13:42:23.382Z,99519.79
2018-09-29T13:44:51.138Z,99515.70
2018-09-29T13:47:18.894Z,99518.36
2018-09-29T13:49:46.606Z,99520.87
2018-09-29T13:52:14.327Z,99520.64
2018-09-29T13:54:42.029Z,99520.87
2018-09-29T13:57:09.782Z,99520.64
2018-09-29T13:59:37.507Z,99514.47
2018-09-29T14:02:05.355Z,99514.37
2018-09-29T14:04:33.079Z,99516.89
2018-09-29T14:07:00.815Z,99512.39
2018-09-29T14:09:28.551Z,99519.27
2018-09-29T14:11:56.283Z,99521.92
2018-09-29T14:14:23.986Z,99525.94
2018-09-29T14:16:51.703Z,99526.55
2018-09-29T14:19:19.447Z,99527.38
2018-09-29T14:21:47.186Z,99535.24
2018-09-29T14:24:14.969Z,99535.72
2018-09-29T14:26:42.695Z,99543.94
2018-09-29T14:29:10.450Z,99541.89
2018-09-29T14:31:38.165Z,99542.95
2018-09-29T14:34:06.031Z,99538.48
2018-09-29T14:36:33.763Z,99547.55
2018-09-29T14:39:01.522Z,99544.40
2018-09-29T14:41:29.240Z,99544.55
2018-09-29T14:43:56.958Z,99543.45
2018-09-29T14:46:24.670Z,99543.94
2018-09-29T14:48:52.403Z,99545.61
2018-09-29T14:51:20.153Z,99550.34
2018-09-29T14:53:47.870Z,99550.82
2018-09-29T14:56:15.598Z,99551.77
2018-09-29T14:58:43.330Z,99550.68
2018-09-29T15:01:11.090Z,99551.53
2018-09-29T15:03:38.833Z,99552.86
2018-09-29T15:06:06.584Z,99557.33
2018-09-29T15:08:34.310Z,99554.19
2018-09-29T15:11:02.037Z,99556.84
2018-09-29T15:13:29.761Z,99557.56
2018-09-29T15:15:57.541Z,99560.98
2018-09-29T15:18:25.270Z,99559.77
2018-09-29T15:20:53.086Z,99555.41
2018-09-29T15:23:20.887Z,99559.28
2018-09-29T15:25:48.614Z,99549.23
2018-09-29T15:28:16.322Z,99548.41
2018-09-29T15:30:44.082Z,99546.94
2018-09-29T15:33:11.851Z,99548.16
2018-09-29T15:35:39.646Z,99551.64
2018-09-29T15:38:07.370Z,99550.82
2018-09-29T15:40:35.131Z,99557.09
2018-09-29T15:43:02.867Z,99561.20
2018-09-29T15:45:30.734Z,99567.48
2018-09-29T15:47:58.454Z,99565.92
2018-09-29T15:50:26.181Z,99567.58
2018-09-29T15:52:53.929Z,99572.91
2018-09-29T15:55:21.811Z,99579.44
2018-09-29T15:57:50.178Z,99574.36
2018-09-29T16:00:19.506Z,99578.08
2018-09-29T16:02:47.505Z,99577.72
2018-09-29T16:05:15.281Z,99573.86
2018-09-29T16:07:43.078Z,99582.08
2018-09-29T16:10:13.010Z,99582.93
2018-09-29T16:12:40.810Z,99582.55
2018-09-29T16:15:08.586Z,99588.84
2018-09-29T16:17:36.299Z,99594.38
2018-09-29T16:20:04.175Z,99601.98
2018-09-29T16:22:31.922Z,99599.55
2018-09-29T16:24:59.665Z,99598.72
2018-09-29T16:27:28.042Z,99600.77
2018-09-29T16:29:55.774Z,99597.91
2018-09-29T16:32:23.518Z,99604.65
2018-09-29T16:34:51.303Z,99604.17
2018-09-29T16:37:19.042Z,99608.29
2018-09-29T16:39:47.393Z,99600.56
2018-09-29T16:42:15.194Z,99604.91
2018-09-29T16:44:42.945Z,99604.55
2018-09-29T16:47:10.707Z,99604.30
2018-09-29T16:49:38.440Z,99615.53
2018-09-29T16:52:06.202Z,99624.34
2018-09-29T16:54:33.909Z,99626.37
2018-09-29T16:57:01.663Z,99631.20
2018-09-29T16:59:29.378Z,99632.42
2018-09-29T17:01:57.127Z,99633.40
2018-09-29T17:04:24.974Z,99633.75
2018-09-29T17:06:52.590Z,99635.30
2018-09-29T17:09:20.298Z,99641.83
2018-09-29T17:11:48.065Z,99642.56
2018-09-29T17:14:15.773Z,99638.07
2018-09-29T17:16:43.497Z,99640.63
2018-09-29T17:19:11.202Z,99647.14
2018-09-29T17:21:38.929Z,99647.52
2018-09-29T17:24:06.655Z,99645.45
2018-09-29T17:26:34.369Z,99648.12
2018-09-29T17:29:02.086Z,99659.73
2018-09-29T17:31:29.846Z,99661.55
2018-09-29T17:33:57.582Z,99661.65
2018-09-29T17:36:25.290Z,99663.61
2018-09-29T17:38:53.018Z,99672.53
2018-09-29T17:41:20.735Z,99675.76
2018-09-29T17:43:48.457Z,99680.13
2018-09-29T17:46:16.234Z,99687.49
2018-09-29T17:48:44.007Z,99684.93
2018-09-29T17:51:12.371Z,99691.45
2018-09-29T17:53:40.090Z,99696.88
2018-09-29T17:56:07.894Z,99702.23
2018-09-29T17:58:35.602Z,99708.84
2018-09-29T18:01:03.379Z,99711.37
2018-09-29T18:03:31.275Z,99714.75
2018-09-29T18:05:58.994Z,99713.17
2018-09-29T18:08:26.743Z,99710.89
2018-09-29T18:10:54.461Z,99710.64
2018-09-29T18:13:22.198Z,99711.37
2018-09-29T18:15:49.978Z,99711.20
2018-09-29T18:18:17.705Z,99716.30
2018-09-29T18:20:45.430Z,99716.30
2018-09-29T18:23:13.141Z,99711.20
2018-09-29T18:25:40.898Z,99711.59
2018-09-29T18:28:08.675Z,99720.16
2018-09-29T18:30:36.369Z,99717.19
2018-09-29T18:33:04.099Z,99726.32
2018-09-29T18:35:31.827Z,99723.54
2018-09-29T18:37:59.549Z,99729.55
2018-09-29T18:40:27.277Z,99735.71
2018-09-29T18:42:55.038Z,99739.70
2018-09-29T18:45:22.782Z,99738.02
2018-09-29T18:47:50.479Z,99738.23
2018-09-29T18:50:18.206Z,99739.66
2018-09-29T18:52:45.923Z,99737.13
2018-09-29T18:55:13.813Z,99741.84
2018-09-29T18:57:41.638Z,99746.77
2018-09-29T19:00:09.450Z,99745.01
2018-09-29T19:02:37.161Z,99743.08
2018-09-29T19:05:04.974Z,99747.19
2018-09-29T19:07:32.810Z,99745.98
2018-09-29T19:10:00.563Z,99751.86
2018-09-29T19:12:28.282Z,99749.81
2018-09-29T19:14:56.102Z,99752.59
2018-09-29T19:17:23.818Z,99760.89
2018-09-29T19:19:51.575Z,99756.58
2018-09-29T19:22:19.289Z,99756.91
2018-09-29T19:24:47.029Z,99757.34
2018-09-29T19:27:14.750Z,99760.73
2018-09-29T19:29:42.531Z,99767.23
2018-09-29T19:32:10.241Z,99765.44
2018-09-29T19:34:39.532Z,99769.28
2018-09-29T19:37:07.253Z,99768.70
2018-09-29T19:39:35.038Z,99768.21
2018-09-29T19:42:02.718Z,99763.92
2018-09-29T19:44:30.834Z,99768.26
2018-09-29T19:46:59.546Z,99768.33
2018-09-29T19:49:27.370Z,99767.13
2018-09-29T19:51:55.139Z,99763.95
2018-09-29T19:54:22.882Z,99767.00
2018-09-29T19:56:50.607Z,99764.34
2018-09-29T19:59:18.382Z,99763.23
2018-09-29T20:01:46.152Z,99766.53
2018-09-29T20:04:13.897Z,99761.47
2018-09-29T20:06:41.670Z,99765.32
2018-09-29T20:09:10.194Z,99766.35
2018-09-29T20:11:37.985Z,99767.63
2018-09-29T20:14:05.806Z,99773.25
2018-09-29T20:16:33.598Z,99773.16
2018-09-29T20:19:02.409Z,99773.58
2018-09-29T20:21:30.155Z,99782.02
2018-09-29T20:23:57.893Z,99774.61
2018-09-29T20:26:25.609Z,99772.03
2018-09-29T20:28:53.369Z,99775.36
2018-09-29T20:31:21.139Z,99775.16
2018-09-29T20:33:48.847Z,99776.46
2018-09-29T20:36:16.655Z,99770.96
2018-09-29T20:38:44.426Z,99769.11
2018-09-29T20:41:12.141Z,99763.80
2018-09-29T20:43:39.855Z,99768.19
2018-09-29T20:46:07.890Z,99772.05
2018-09-29T20:48:35.630Z,99770.83
2018-09-29T20:51:03.359Z,99776.34
2018-09-29T20:53:31.085Z,99777.14
2018-09-29T20:55:58.826Z,99778.14
2018-09-29T20:58:26.543Z,99781.52
2018-09-29T21:00:54.258Z,99787.28
2018-09-29T21:03:21.968Z,99780.11
2018-09-29T21:05:49.713Z,99789.40
2018-09-29T21:08:17.443Z,99797.56
2018-09-29T21:10:45.226Z,99804.08
2018-09-29T21:13:13.014Z,99799.25
2018-09-29T21:15:40.680Z,99802.77
2018-09-29T21:18:08.405Z,99807.91
2018-09-29T21:20:36.121Z,99805.84
2018-09-29T21:23:03.930Z,99804.78
2018-09-29T21:25:31.647Z,99805.02
2018-09-29T21:27:59.382Z,99806.20
2018-09-29T21:30:27.094Z,99807.17
2018-09-29T21:32:54.832Z,99804.34
2018-09-29T21:35:22.566Z,99804.73
2018-09-29T21:37:50.581Z,99811.95
2018-09-29T21:40:18.293Z,99816.67
2018-09-29T21:42:46.005Z,99814.43
2018-09-29T21:45:13.774Z,99821.77
2018-09-29T21:47:41.495Z,99824.75
2018-09-29T21:50:09.206Z,99828.61
2018-09-29T21:52:36.919Z,99831.80
2018-09-29T21:55:04.637Z,99832.80
2018-09-29T21:57:32.358Z,99831.65
2018-09-29T22:00:00.063Z,99832.97
2018-09-29T22:02:27.770Z,99834.98
2018-09-29T22:04:55.489Z,99840.08
2018-09-29T22:07:23.214Z,99840.49
2018-09-29T22:09:50.949Z,99846.92
2018-09-29T22:12:18.666Z,99846.33
2018-09-29T22:14:46.409Z,99847.06
2018-09-29T22:17:14.137Z,99850.59
2018-09-29T22:19:41.858Z,99849.20
2018-09-29T22:22:09.583Z,99850.72
2018-09-29T22:24:37.326Z,99848.12
2018-09-29T22:27:05.107Z,99849.83
2018-09-29T22:29:32.825Z,99854.08
2018-09-29T22:32:00.537Z,99858.91
2018-09-29T22:34:28.277Z,99862.55
2018-09-29T22:36:56.036Z,99865.08
2018-09-29T22:39:23.757Z,99862.55
2018-09-29T22:41:51.466Z,99871.67
2018-09-29T22:44:19.186Z,99864.92
2018-09-29T22:46:46.915Z,99870.07
2018-09-29T22:49:14.650Z,99870.23
2018-09-29T22:51:42.403Z,99876.59
2018-09-29T22:54:10.118Z,99876.20
2018-09-29T22:56:37.845Z,99875.55
2018-09-29T22:59:05.606Z,99879.73
2018-09-29T23:01:33.341Z,99889.45
2018-09-29T23:04:01.085Z,99888.72
2018-09-29T23:06:28.826Z,99895.22
2018-09-29T23:08:56.545Z,99896.34
2018-09-29T23:11:24.378Z,99899.08
2018-09-29T23:13:52.176Z,99901.65
2018-09-29T23:16:19.937Z,99907.97
2018-09-29T23:18:47.669Z,99912.02
2018-09-29T23:21:15.390Z,99914.98
2018-09-29T23:23:43.134Z,99920.15
2018-09-29T23:26:10.877Z,99922.88
2018-09-29T23:28:38.617Z,99930.09
2018-09-29T23:31:06.433Z,99924.34
2018-09-29T23:33:34.186Z,99928.59
2018-09-29T23:36:01.957Z,99925.56
2018-09-29T23:38:29.726Z,99931.66
2018-09-29T23:40:57.463Z,99932.48
2018-09-29T23:43:25.198Z,99935.98
2018-09-29T23:45:52.932Z,99945.92
2018-09-29T23:48:20.667Z,99944.34
2018-09-29T23:50:48.422Z,99941.89
2018-09-29T23:53:16.173Z,99940.57
2018-09-29T23:55:43.947Z,99939.16
2018-09-29T23:58:11.680Z,99939.91
